Latest Weather Observations for Mount Boyce

IDN60801

Issued at 2:04 am EST Thursday 28 May 2015 (issued every 30 minutes, with the page automatically refreshed every 10 minutes)

About weather observations | Map of weather stations | Latest weather observations for NSW | Other Formats
Station Details ID: 063292 Name: MOUNT BOYCE AWS Lat: -33.62 Lon: 150.27 Height: 1080.0 m
Data from the previous 72 hours. | See also: Recent months at Mount Boyce
Date/Time
EST
Temp
°C
App
Temp
°C
Dew
Point
Rel
Hum
%
Delta-T
°C
Wind Press
QNH
hPa
Press
MSL
hPa
Rain
since 9 am
mm
Dir
 
Spd
km/h
Gust
km/h
Spd
kts
Gust
kts
28/02:00am 8.1 5.7 5.4 83 1.3 NW 7 11 4 6 - - 0.0
28/01:30am 7.6 4.8 5.2 85 1.1 WNW 9 13 5 7 - - 0.0
28/01:00am 7.6 5.3 5.6 87 1.0 W 7 9 4 5 - - 0.0
28/12:30am 7.7 5.0 5.7 87 1.0 WNW 9 13 5 7 - - 0.0
28/12:00am 7.3 4.6 5.8 90 0.7 WNW 9 13 5 7 - - 0.0
 
Date/Time
EST
Temp
°C
App
Temp
°C
Dew
Point
Rel
Hum
%
Delta-T
°C
Wind Press
QNH
hPa
Press
MSL
hPa
Rain
since 9 am
mm
Dir
 
Spd
km/h
Gust
km/h
Spd
kts
Gust
kts
27/11:30pm 7.2 4.2 5.8 91 0.7 WNW 11 15 6 8 - - 0.0
27/11:00pm 6.9 4.6 5.7 92 0.6 NW 7 9 4 5 - - 0.0
27/10:30pm 6.9 4.8 5.7 92 0.6 WNW 6 9 3 5 - - 0.0
27/10:00pm 7.1 5.0 5.6 90 0.7 WNW 6 9 3 5 - - 0.0
27/09:30pm 7.4 6.5 5.9 90 0.7 CALM 0 4 0 2 - - 0.0
27/09:00pm 7.8 5.8 6.1 89 0.8 W 6 9 3 5 - - 0.0
27/08:30pm 7.9 4.9 6.2 89 0.8 W 11 13 6 7 - - 0.0
27/08:00pm 7.7 4.3 6.0 89 0.8 WSW 13 17 7 9 - - 0.0
27/07:30pm 8.4 5.1 6.5 88 0.9 WSW 13 17 7 9 - - 0.0
27/07:00pm 8.2 4.9 6.3 88 0.9 W 13 15 7 8 - - 0.0
27/06:30pm 8.2 6.0 6.2 87 1.0 W 7 9 4 5 - - 0.0
27/06:00pm 8.8 6.6 6.2 84 1.3 W 7 11 4 6 - - 0.0
27/05:30pm 9.4 6.5 6.7 83 1.3 WSW 11 15 6 8 - - 0.0
27/05:00pm 9.5 7.0 6.4 81 1.5 WSW 9 13 5 7 - - 0.0
27/04:30pm 10.1 7.6 6.4 78 1.8 WSW 9 15 5 8 - - 0.0
27/04:00pm 10.6 7.3 6.2 74 2.2 W 13 17 7 9 - - 0.0
27/03:30pm 11.1 7.0 6.3 72 2.4 WSW 17 22 9 12 - - 0.0
27/03:00pm 11.3 7.8 7.0 75 2.2 W 15 24 8 13 - - 0.0
27/02:30pm 11.5 8.2 6.6 72 2.5 W 13 20 7 11 - - 0.0
27/02:00pm 11.9 8.9 6.2 68 2.9 WSW 11 17 6 9 - - 0.0
27/01:30pm 13.0 10.1 6.6 65 3.3 WSW 11 19 6 10 - - 0.0
27/01:00pm 12.8 9.9 6.6 66 3.2 W 11 17 6 9 - - 0.0
27/12:30pm 11.4 8.7 5.5 67 2.9 WNW 9 13 5 7 - - 0.0
27/12:00pm 10.9 7.9 3.9 62 3.3 W 9 13 5 7 - - 0.0
27/11:30am 10.2 7.2 3.9 65 3.0 W 9 11 5 6 - - 0.0
27/11:00am 10.0 8.5 2.8 61 3.3 CALM 0 0 0 0 - - 0.0
27/10:30am 9.0 5.6 1.9 61 3.2 W 9 13 5 7 - - 0.0
27/10:00am 8.7 5.5 3.3 69 2.5 WSW 9 13 5 7 - - 0.0
27/09:30am 7.7 4.5 3.0 72 2.1 W 9 13 5 7 - - 0.0
27/09:00am 7.1 3.9 3.2 76 1.8 WSW 9 13 5 7 - - 0.0
27/08:30am 6.9 3.0 3.2 77 1.7 WSW 13 15 7 8 - - 0.0
27/08:00am 6.1 2.1 2.6 78 1.5 W 13 17 7 9 - - 0.0
27/07:30am 5.7 1.2 2.2 78 1.5 W 15 24 8 13 - - 0.0
27/07:00am 6.0 1.1 1.9 75 1.8 W 17 22 9 12 - - 0.0
27/06:30am 6.0 1.2 2.6 79 1.5 W 17 20 9 11 - - 0.0
27/06:00am 6.1 1.4 3.3 82 1.3 W 17 22 9 12 - - 0.0
27/05:30am 6.5 2.2 3.1 79 1.5 W 15 20 8 11 - - 0.0
27/05:00am 6.4 3.1 2.5 76 1.7 W 9 13 5 7 - - 0.0
27/04:30am 6.3 2.6 2.4 76 1.7 W 11 13 6 7 - - 0.0
27/04:00am 6.0 2.3 2.3 77 1.6 W 11 13 6 7 - - 0.0
27/03:30am 6.0 2.7 2.5 78 1.5 W 9 13 5 7 - - 0.0
27/03:00am 6.2 2.6 3.0 80 1.4 W 11 15 6 8 - - 0.0
27/02:30am 6.7 3.0 2.4 74 1.9 WNW 11 13 6 7 - - 0.0
27/02:00am 6.5 3.0 3.5 81 1.4 W 11 15 6 8 - - 0.0
27/01:30am 6.7 3.1 2.8 76 1.7 WNW 11 17 6 9 - - 0.0
27/01:00am 6.7 4.0 2.4 74 1.9 SW 6 7 3 4 - - 0.0
27/12:30am 6.5 5.0 2.8 77 1.6 CALM 0 0 0 0 - - 0.0
27/12:00am 6.7 3.8 2.8 76 1.7 W 7 9 4 5 - - 0.0
 
Date/Time
EST
Temp
°C
App
Temp
°C
Dew
Point
Rel
Hum
%
Delta-T
°C
Wind Press
QNH
hPa
Press
MSL
hPa
Rain
since 9 am
mm
Dir
 
Spd
km/h
Gust
km/h
Spd
kts
Gust
kts
26/11:30pm 8.7 5.6 1.1 59 3.3 NNW 7 9 4 5 - - 0.0
26/11:00pm 7.1 5.0 1.8 69 2.3 WNW 2 7 1 4 - - 0.0
26/10:30pm 6.0 3.4 4.2 88 0.8 WSW 7 11 4 6 - - 0.0
26/10:00pm 6.9 3.9 4.0 82 1.3 ENE 9 13 5 7 - - 0.0
26/09:30pm 7.3 4.9 4.1 80 1.5 N 6 9 3 5 - - 0.0
26/09:00pm 7.3 4.8 4.6 83 1.3 WNW 7 11 4 6 - - 0.0
26/08:30pm 7.4 5.5 4.7 83 1.3 N 4 7 2 4 - - 0.0
26/08:00pm 6.6 4.3 4.6 87 0.9 NE 6 9 3 5 - - 0.0
26/07:30pm 6.7 3.7 4.2 84 1.2 NE 9 11 5 6 - - 0.0
26/07:00pm 6.8 5.6 4.5 85 1.1 CALM 0 6 0 3 - - 0.0
26/06:30pm 6.6 3.7 4.6 87 0.9 ENE 9 13 5 7 - - 0.0
26/06:00pm 6.7 3.8 4.9 88 0.8 ENE 9 11 5 6 - - 0.0
26/05:30pm 7.0 4.5 4.8 86 1.0 NE 7 11 4 6 - - 0.0
26/05:00pm 7.4 4.9 4.7 83 1.3 ENE 7 11 4 6 - - 0.0
26/04:30pm 8.2 5.7 4.8 79 1.6 ENE 7 9 4 5 - - 0.0
26/04:00pm 9.3 6.8 4.9 74 2.1 ENE 7 11 4 6 - - 0.0
26/03:30pm 9.8 6.9 4.6 70 2.5 NE 9 13 5 7 - - 0.0
26/03:00pm 10.9 8.3 4.4 64 3.1 NE 7 9 4 5 - - 0.0
26/02:30pm 11.1 8.6 3.9 61 3.4 ENE 6 9 3 5 - - 0.0
26/02:00pm 11.9 9.8 3.9 58 3.8 ENE 4 9 2 5 - - 0.0
26/01:30pm 11.5 9.6 0.6 47 4.8 CALM 0 2 0 1 - - 0.0
26/01:00pm 10.4 7.4 1.0 52 4.2 W 6 7 3 4 - - 0.0
26/12:30pm 11.5 8.4 0.0 45 5.0 W 6 7 3 4 - - 0.0
26/12:00pm 10.7 7.0 -3.0 38 5.5 W 7 11 4 6 - - 0.0
26/11:30am 10.5 6.1 -5.5 32 6.1 W 9 11 5 6 - - 0.0
26/11:00am 9.9 6.2 -2.7 41 5.1 WNW 7 11 4 6 - - 0.0
26/10:30am 9.6 7.5 -1.1 47 4.5 CALM 0 6 0 3 - - 0.0
26/10:00am 9.5 7.7 0.9 55 3.8 CALM 0 0 0 0 - - 0.0
26/09:30am 8.9 6.7 -1.8 47 4.4 CALM 0 0 0 0 - - 0.0
26/09:00am 7.8 5.2 -4.6 41 4.7 CALM 0 0 0 0 - - 0.0
26/08:30am 7.0 4.5 -4.1 45 4.2 CALM 0 0 0 0 - - 0.0
26/08:00am 5.9 3.4 -4.3 48 3.8 CALM 0 0 0 0 - - 0.0
26/07:30am 5.3 2.8 -4.0 51 3.5 CALM 0 0 0 0 - - 0.0
26/07:00am 5.0 0.9 -3.3 55 3.1 E 9 11 5 6 - - 0.0
26/06:30am 4.9 1.2 -2.9 57 3.0 E 7 9 4 5 - - 0.0
26/06:00am 5.0 0.8 -3.5 54 3.2 E 9 11 5 6 - - 0.0
26/05:30am 5.1 1.4 -2.7 57 3.0 ENE 7 11 4 6 - - 0.0
26/05:00am 5.6 1.9 -2.7 55 3.2 ENE 7 9 4 5 - - 0.0
26/04:30am 5.6 1.7 -4.5 48 3.7 E 7 9 4 5 - - 0.0
26/04:00am 6.1 2.1 -5.5 43 4.2 ESE 7 11 4 6 - - 0.0
26/03:30am 6.8 2.6 -7.6 35 5.0 SSE 7 11 4 6 - - 0.0
26/03:00am 6.9 3.6 -8.6 32 5.2 SW 2 7 1 4 - - 0.0
26/02:30am 6.6 3.9 -6.3 39 4.6 CALM 0 0 0 0 - - 0.0
26/02:00am 6.1 3.7 -3.3 51 3.6 CALM 0 0 0 0 - - 0.0
26/01:30am 6.9 4.0 -8.2 33 5.2 CALM 0 0 0 0 - - 0.0
26/01:00am 6.7 3.3 -5.0 43 4.3 WNW 4 7 2 4 - - 0.0
26/12:30am 6.7 4.4 -2.7 51 3.7 CALM 0 0 0 0 - - 0.0
26/12:00am 5.7 2.7 0.9 71 2.0 WNW 6 7 3 4 - - 0.0
 
Date/Time
EST
Temp
°C
App
Temp
°C
Dew
Point
Rel
Hum
%
Delta-T
°C
Wind Press
QNH
hPa
Press
MSL
hPa
Rain
since 9 am
mm
Dir
 
Spd
km/h
Gust
km/h
Spd
kts
Gust
kts
25/11:30pm 6.3 4.7 2.2 75 1.8 CALM 0 0 0 0 - - 0.0
25/11:00pm 6.3 3.5 2.2 75 1.8 W 6 6 3 3 - - 0.0
25/10:30pm 6.2 3.2 2.3 76 1.7 W 7 9 4 5 - - 0.0
25/10:00pm 6.1 2.8 2.7 79 1.5 W 9 11 5 6 - - 0.0
25/09:30pm 5.6 1.6 2.9 83 1.2 W 13 15 7 8 - - 0.0
25/09:00pm 5.8 1.8 3.0 82 1.2 W 13 15 7 8 - - 0.0
25/08:30pm 6.3 2.5 3.8 84 1.1 W 13 17 7 9 - - 0.0
25/08:00pm 6.6 2.8 4.1 84 1.1 W 13 15 7 8 - - 0.0
25/07:30pm 6.7 2.6 4.4 85 1.1 W 15 20 8 11 - - 0.0
25/07:00pm 6.5 2.8 4.2 85 1.1 W 13 17 7 9 - - 0.0
25/06:30pm 6.7 2.2 4.0 83 1.2 W 17 20 9 11 - - 0.0
25/06:00pm 7.0 2.8 4.0 81 1.4 W 15 19 8 10 - - 0.0
25/05:30pm 7.6 3.4 4.0 78 1.7 W 15 19 8 10 - - 0.0
25/05:00pm 8.0 3.4 3.8 75 1.9 W 17 24 9 13 - - 0.0
25/04:30pm 8.5 3.4 3.9 73 2.1 W 20 28 11 15 - - 0.0
25/04:00pm 8.9 3.8 3.3 68 2.6 WSW 19 24 10 13 - - 0.0
25/03:30pm 9.3 3.9 2.4 62 3.1 W 20 28 11 15 - - 0.0
25/03:00pm 9.7 4.4 3.0 63 3.1 W 20 32 11 17 - - 0.0
25/02:30pm 10.7 5.6 3.0 59 3.6 W 19 24 10 13 - - 0.0
25/02:00pm 11.6 7.3 5.3 65 3.1 W 17 24 9 13 - - 0.0
25/01:30pm 10.6 6.1 4.3 65 3.0 W 17 20 9 11 - - 0.0
25/01:00pm 11.3 7.2 4.5 63 3.3 W 15 20 8 11 - - 0.0
25/12:30pm 10.6 7.1 3.4 61 3.4 W 11 15 6 8 - - 0.0
25/12:00pm 10.8 7.3 3.4 60 3.5 W 11 13 6 7 - - 0.0
25/11:30am 10.9 6.6 0.9 50 4.4 W 13 17 7 9 - - 0.0
25/11:00am 10.0 5.7 0.9 53 4.0 W 13 19 7 10 - - 0.0
25/10:30am 9.0 5.2 3.8 70 2.4 WSW 13 17 7 9 - - 0.0
25/10:00am 8.6 5.1 1.1 59 3.3 W 9 13 5 7 - - 0.0
25/09:30am 7.5 3.6 3.6 76 1.8 WSW 13 17 7 9 - - 0.0
25/09:00am 7.4 4.3 3.8 78 1.7 WSW 9 13 5 7 - - 0.2
25/08:30am 6.5 3.8 3.7 82 1.3 W 7 11 4 6 - - 0.2
25/08:00am 6.1 4.5 2.7 79 1.5 CALM 0 0 0 0 - - 0.2
25/07:30am 6.2 3.4 2.3 76 1.7 NW 6 9 3 5 - - 0.2
25/07:00am 6.6 3.3 2.5 75 1.8 NNW 9 11 5 6 - - 0.2
25/06:30am 7.0 2.9 2.3 72 2.1 N 13 17 7 9 - - 0.2
25/06:00am 6.3 2.9 1.6 72 2.0 NNW 9 13 5 7 - - 0.2
25/05:30am 6.5 2.8 2.2 74 1.9 NNE 11 19 6 10 - - 0.2
25/05:00am 5.7 2.5 3.0 83 1.2 NNW 9 13 5 7 - - 0.2
25/04:30am 5.7 2.9 3.4 85 1.0 NNW 7 13 4 7 - - 0.2
25/04:00am 6.5 2.9 2.9 78 1.6 N 11 17 6 9 - - 0.2
25/03:30am 5.9 3.3 3.1 82 1.2 NNW 6 11 3 6 - - 0.2
25/03:00am 5.8 3.4 4.1 89 0.8 NW 6 9 3 5 - - 0.2
25/02:30am 5.3 3.2 4.0 91 0.6 NW 4 9 2 5 - - 0.2

Other Formats:

Comma delimited format used in spreadsheet applications
http://www.bom.gov.au/fwo/IDN60801/IDN60801.94743.axf

JavaScript Object Notation format (JSON) in row-major order
http://www.bom.gov.au/fwo/IDN60801/IDN60801.94743.json